createdAt,value
2022-12-12T00:04:46.536Z,-2.76
2022-12-12T00:09:54.174Z,-2.65
2022-12-12T00:14:59.564Z,-2.96
2022-12-12T00:20:04.864Z,-2.97
2022-12-12T00:25:13.386Z,-2.66
2022-12-12T00:30:18.718Z,-2.81
2022-12-12T00:35:24.296Z,-2.97
2022-12-12T00:40:31.856Z,-2.87
2022-12-12T00:45:36.829Z,-2.95
2022-12-12T00:50:41.782Z,-2.82
2022-12-12T00:55:49.442Z,-2.85
2022-12-12T01:00:54.785Z,-2.64
2022-12-12T01:05:59.720Z,-2.91
2022-12-12T01:11:08.194Z,-2.80
2022-12-12T01:16:14.086Z,-2.78
2022-12-12T01:21:21.549Z,-2.83
2022-12-12T01:26:29.170Z,-2.74
2022-12-12T01:31:34.736Z,-2.73
2022-12-12T01:36:39.794Z,-2.77
2022-12-12T01:41:48.927Z,-2.53
2022-12-12T01:46:53.978Z,-2.81
2022-12-12T01:52:03.561Z,-2.85
2022-12-12T01:57:16.123Z,-2.91
2022-12-12T02:02:21.310Z,-2.72
2022-12-12T02:07:26.292Z,-2.70
2022-12-12T02:12:34.154Z,-2.77
2022-12-12T02:18:03.568Z,-2.75
2022-12-12T02:23:38.949Z,-2.79
2022-12-12T02:29:19.386Z,-2.69
2022-12-12T02:34:36.756Z,-2.61
2022-12-12T02:39:52.327Z,-2.40
2022-12-12T02:45:02.587Z,-2.35
2022-12-12T02:50:13.800Z,-2.56
2022-12-12T02:55:20.014Z,-2.53
2022-12-12T03:00:25.536Z,-2.62
2022-12-12T03:05:57.917Z,-2.54
2022-12-12T03:11:06.632Z,-2.67
2022-12-12T03:16:21.967Z,-2.61
2022-12-12T03:21:38.571Z,-2.61
2022-12-12T03:26:49.805Z,-2.57
2022-12-12T03:32:00.225Z,-2.68
2022-12-12T03:37:13.252Z,-2.57
2022-12-12T03:42:24.170Z,-2.65
2022-12-12T03:47:41.898Z,-2.59
2022-12-12T03:52:54.675Z,-2.61
2022-12-12T03:58:04.006Z,-2.66
2022-12-12T04:03:17.710Z,-2.65
2022-12-12T04:08:27.603Z,-2.58
2022-12-12T04:13:38.711Z,-2.70
2022-12-12T04:18:52.179Z,-2.71
2022-12-12T04:24:08.388Z,-2.46
2022-12-12T04:29:25.144Z,-2.58
2022-12-12T04:34:42.284Z,-2.40
2022-12-12T04:39:53.777Z,-2.39
2022-12-12T04:45:04.073Z,-2.52
2022-12-12T04:50:11.961Z,-2.38
2022-12-12T04:55:24.983Z,-2.27
2022-12-12T05:00:37.141Z,-2.42
2022-12-12T05:05:46.928Z,-2.37
2022-12-12T05:10:58.644Z,-2.54
2022-12-12T05:16:07.054Z,-2.50
2022-12-12T05:21:12.010Z,-2.36
2022-12-12T05:26:24.978Z,-2.47
2022-12-12T05:31:30.096Z,-2.50
2022-12-12T05:36:37.635Z,-2.40
2022-12-12T05:41:45.592Z,-2.36
2022-12-12T05:46:50.741Z,-2.41
2022-12-12T05:51:55.972Z,-2.30
2022-12-12T05:57:03.504Z,-2.27
2022-12-12T06:02:08.624Z,-2.28
2022-12-12T06:07:13.753Z,-2.28
2022-12-12T06:12:21.369Z,-2.23
2022-12-12T06:17:31.350Z,-2.11
2022-12-12T06:22:39.080Z,-2.42
2022-12-12T06:27:46.889Z,-2.27
2022-12-12T06:32:51.832Z,-2.48
2022-12-12T06:37:56.769Z,-2.29
2022-12-12T06:43:04.737Z,-2.41
2022-12-12T06:48:10.036Z,-2.49
2022-12-12T06:53:16.763Z,-2.28
2022-12-12T06:58:24.433Z,-2.49
2022-12-12T07:03:29.696Z,-2.49
2022-12-12T07:08:34.647Z,-2.31
2022-12-12T07:13:42.844Z,-2.42
2022-12-12T07:18:49.817Z,-2.21
2022-12-12T07:23:54.956Z,-2.42
2022-12-12T07:29:03.826Z,-2.42
2022-12-12T07:34:08.720Z,-2.20
2022-12-12T07:39:20.152Z,-2.27
2022-12-12T07:44:28.747Z,-2.39
2022-12-12T07:49:34.442Z,-2.35
2022-12-12T07:54:39.681Z,-1.85
2022-12-12T07:59:47.388Z,-1.87
2022-12-12T08:04:52.422Z,-2.09
2022-12-12T08:10:00.078Z,-2.14
2022-12-12T08:15:11.189Z,-2.17
2022-12-12T08:20:20.606Z,-2.19
2022-12-12T08:25:25.682Z,-2.09
2022-12-12T08:30:33.289Z,-2.07
2022-12-12T08:35:40.511Z,-1.67
2022-12-12T08:40:56.071Z,-1.81
2022-12-12T08:46:06.072Z,-1.86
2022-12-12T08:51:15.563Z,-1.75
2022-12-12T08:56:21.216Z,-1.93
2022-12-12T09:01:30.711Z,-1.81
2022-12-12T09:06:35.981Z,-1.87
2022-12-12T09:11:43.358Z,-1.61
2022-12-12T09:16:53.106Z,-1.84
2022-12-12T09:21:58.915Z,-1.98
2022-12-12T09:27:04.888Z,-1.72
2022-12-12T09:32:18.694Z,-1.45
2022-12-12T09:37:28.420Z,-1.84
2022-12-12T09:42:37.265Z,-1.75
2022-12-12T09:47:49.243Z,-1.44
2022-12-12T09:52:57.581Z,-1.67
2022-12-12T09:58:08.929Z,-1.62
2022-12-12T10:03:37.424Z,-1.57
2022-12-12T10:08:50.318Z,-1.54
2022-12-12T10:13:59.935Z,-1.75
2022-12-12T10:19:13.995Z,-1.59
2022-12-12T10:24:33.159Z,-1.59
2022-12-12T10:29:41.528Z,-1.56
2022-12-12T10:35:03.426Z,-1.69
2022-12-12T10:40:49.440Z,-1.64
2022-12-12T10:46:19.578Z,-1.32
2022-12-12T10:51:31.208Z,-1.64
2022-12-12T10:56:36.451Z,-1.50
2022-12-12T11:02:09.144Z,-1.53
2022-12-12T11:07:22.300Z,-1.49
2022-12-12T11:12:40.116Z,-1.62
2022-12-12T11:17:46.466Z,-1.59
2022-12-12T11:23:02.677Z,-1.46
2022-12-12T11:28:09.636Z,-1.44
2022-12-12T11:33:22.418Z,-1.43
2022-12-12T11:38:35.878Z,-1.33
2022-12-12T11:43:55.380Z,-1.29
2022-12-12T11:49:03.850Z,-1.10
2022-12-12T11:54:16.748Z,-1.21
2022-12-12T12:00:01.393Z,-0.81
2022-12-12T12:05:22.149Z,-0.86
2022-12-12T12:10:49.170Z,-1.24
2022-12-12T12:16:02.365Z,-1.08
2022-12-12T12:21:32.046Z,-1.18
2022-12-12T12:26:50.432Z,-1.30
2022-12-12T12:32:19.431Z,-1.26
2022-12-12T12:37:40.747Z,-1.13
2022-12-12T12:43:02.857Z,-1.24
2022-12-12T12:48:17.324Z,-1.05
2022-12-12T12:53:35.304Z,-1.00
2022-12-12T12:58:47.648Z,-1.00
2022-12-12T13:03:59.761Z,-1.09
2022-12-12T13:09:18.814Z,-1.15
2022-12-12T13:14:40.990Z,-1.05
2022-12-12T13:19:50.239Z,-0.94
2022-12-12T13:25:02.512Z,-1.02
2022-12-12T13:30:23.500Z,-1.13
2022-12-12T13:35:33.891Z,-1.03
2022-12-12T13:40:54.062Z,-0.74
2022-12-12T13:46:24.481Z,-0.95
2022-12-12T13:51:54.685Z,-0.79
2022-12-12T13:57:14.650Z,-0.86
2022-12-12T14:02:33.631Z,-0.73
2022-12-12T14:07:42.595Z,-0.80
2022-12-12T14:13:09.544Z,-1.07
2022-12-12T14:18:46.192Z,-0.80
2022-12-12T14:24:50.389Z,-0.83
2022-12-12T14:30:07.940Z,-1.19
2022-12-12T14:35:30.476Z,-0.92
2022-12-12T14:40:44.848Z,-1.18
2022-12-12T14:45:59.161Z,-1.29
2022-12-12T14:51:09.321Z,-1.39
2022-12-12T14:56:25.317Z,-1.48
2022-12-12T15:01:35.756Z,-1.56
2022-12-12T15:06:45.939Z,-1.50
2022-12-12T15:11:55.070Z,-1.63
2022-12-12T15:17:05.870Z,-1.42
2022-12-12T15:22:14.303Z,-1.78
2022-12-12T15:27:30.754Z,-1.80
2022-12-12T15:32:51.911Z,-1.54
2022-12-12T15:38:33.289Z,-1.95
2022-12-12T15:43:57.497Z,-1.83
2022-12-12T15:49:04.564Z,-2.21
2022-12-12T15:54:39.735Z,-2.33
2022-12-12T15:59:57.511Z,-2.24
2022-12-12T16:05:29.861Z,-2.21
2022-12-12T16:11:04.684Z,-2.17
2022-12-12T16:16:48.158Z,-2.16
2022-12-12T16:21:53.271Z,-2.29
2022-12-12T16:27:00.657Z,-2.35
2022-12-12T16:32:08.544Z,-2.33
2022-12-12T16:37:25.511Z,-2.25
2022-12-12T16:42:31.311Z,-2.48
2022-12-12T16:47:39.393Z,-2.47
2022-12-12T16:52:44.307Z,-2.47
2022-12-12T16:57:49.737Z,-2.58
2022-12-12T17:02:57.392Z,-2.51
2022-12-12T17:08:02.455Z,-2.41
2022-12-12T17:13:11.502Z,-2.35
2022-12-12T17:18:19.146Z,-2.36
2022-12-12T17:23:31.018Z,-2.36
2022-12-12T17:28:37.073Z,-2.50
2022-12-12T17:33:50.625Z,-2.52
2022-12-12T17:38:56.781Z,-2.47
2022-12-12T17:44:01.764Z,-2.44
2022-12-12T17:49:11.631Z,-2.40
2022-12-12T17:54:16.645Z,-2.46
2022-12-12T17:59:21.617Z,-2.31
2022-12-12T18:04:29.666Z,-2.35
2022-12-12T18:09:35.896Z,-2.50
2022-12-12T18:14:57.236Z,-2.46
2022-12-12T18:20:05.113Z,-2.59
2022-12-12T18:25:11.428Z,-2.33
2022-12-12T18:30:17.533Z,-2.42
2022-12-12T18:35:27.652Z,-2.24
2022-12-12T18:40:35.920Z,-2.21
2022-12-12T18:45:41.242Z,-2.37
2022-12-12T18:50:51.966Z,-2.59
2022-12-12T18:55:56.922Z,-2.32
2022-12-12T19:01:07.196Z,-2.37
2022-12-12T19:06:21.905Z,-2.39
2022-12-12T19:11:28.950Z,-2.42
2022-12-12T19:16:34.823Z,-2.45
2022-12-12T19:21:43.158Z,-2.42
2022-12-12T19:26:50.762Z,-2.54
2022-12-12T19:31:58.782Z,-2.58
2022-12-12T19:37:07.294Z,-2.58
2022-12-12T19:42:13.874Z,-2.61
2022-12-12T19:47:19.828Z,-2.77
2022-12-12T19:52:30.486Z,-2.36
2022-12-12T19:57:36.670Z,-2.58
2022-12-12T20:02:44.303Z,-2.71
2022-12-12T20:07:54.153Z,-2.52
2022-12-12T20:13:00.756Z,-2.73
2022-12-12T20:18:09.591Z,-2.73
2022-12-12T20:23:21.249Z,-2.72
2022-12-12T20:28:26.397Z,-2.78
2022-12-12T20:33:31.597Z,-2.63
2022-12-12T20:38:40.639Z,-2.60
2022-12-12T20:43:46.419Z,-2.65
2022-12-12T20:48:53.740Z,-2.61
2022-12-12T20:54:06.098Z,-2.30
2022-12-12T20:59:14.605Z,-2.50
2022-12-12T21:04:21.197Z,-2.53
2022-12-12T21:09:28.909Z,-2.66
2022-12-12T21:14:36.054Z,-2.65
2022-12-12T21:19:41.619Z,-2.69
2022-12-12T21:24:51.547Z,-2.45
2022-12-12T21:29:59.280Z,-2.67
2022-12-12T21:35:04.362Z,-2.69
2022-12-12T21:40:15.438Z,-2.71
2022-12-12T21:45:20.446Z,-2.79
2022-12-12T21:50:30.560Z,-2.74
2022-12-12T21:55:41.899Z,-2.74
2022-12-12T22:00:46.850Z,-2.75
2022-12-12T22:05:51.932Z,-2.71
2022-12-12T22:11:02.419Z,-2.68
2022-12-12T22:16:10.693Z,-2.60
2022-12-12T22:21:19.164Z,-2.68
2022-12-12T22:26:29.053Z,-2.72
2022-12-12T22:31:37.552Z,-2.81
2022-12-12T22:36:46.420Z,-2.81
2022-12-12T22:41:54.615Z,-2.65
2022-12-12T22:46:59.602Z,-2.91
2022-12-12T22:52:04.574Z,-2.49
2022-12-12T22:57:12.167Z,-2.60
2022-12-12T23:02:23.126Z,-2.70
2022-12-12T23:07:30.270Z,-2.69
2022-12-12T23:12:40.015Z,-2.47
2022-12-12T23:17:45.042Z,-2.51
2022-12-12T23:22:49.986Z,-2.63
2022-12-12T23:27:57.738Z,-2.57
2022-12-12T23:33:03.215Z,-2.67
2022-12-12T23:38:08.230Z,-2.46
2022-12-12T23:43:20.387Z,-2.60
2022-12-12T23:48:27.187Z,-2.50
2022-12-12T23:53:35.198Z,-2.30
2022-12-12T23:58:44.870Z,-2.53
